createdAt,value
2023-02-06T00:00:16.715Z,18.60
2023-02-06T00:03:03.106Z,36.00
2023-02-06T00:05:29.271Z,17.80
2023-02-06T00:07:55.330Z,17.00
2023-02-06T00:10:23.857Z,16.10
2023-02-06T00:12:49.887Z,15.30
2023-02-06T00:15:18.989Z,26.60
2023-02-06T00:17:44.895Z,13.00
2023-02-06T00:20:11.756Z,12.30
2023-02-06T00:22:37.745Z,26.30
2023-02-06T00:25:04.035Z,11.00
2023-02-06T00:27:29.938Z,24.70
2023-02-06T00:29:56.899Z,11.70
2023-02-06T00:32:22.857Z,12.00
2023-02-06T00:34:48.882Z,11.50
2023-02-06T00:37:16.746Z,12.20
2023-02-06T00:39:42.958Z,12.40
2023-02-06T00:42:08.938Z,23.70
2023-02-06T00:44:34.900Z,11.10
2023-02-06T00:47:00.949Z,11.70
2023-02-06T00:49:27.213Z,12.60
2023-02-06T00:51:53.156Z,12.30
2023-02-06T00:54:20.242Z,11.40
2023-02-06T00:59:13.581Z,12.00
2023-02-06T01:01:39.511Z,12.60
2023-02-06T01:04:05.474Z,12.00
2023-02-06T01:06:31.503Z,25.00
2023-02-06T01:08:57.465Z,10.70
2023-02-06T01:11:24.380Z,24.30
2023-02-06T01:13:51.674Z,10.50
2023-02-06T01:16:19.382Z,10.90
2023-02-06T01:18:45.359Z,24.40
2023-02-06T01:21:12.937Z,11.60
2023-02-06T01:23:38.979Z,10.90
2023-02-06T01:26:10.824Z,12.70
2023-02-06T01:28:40.355Z,12.50
2023-02-06T01:31:14.387Z,11.80
2023-02-06T01:33:40.435Z,10.40
2023-02-06T01:36:06.818Z,10.70
2023-02-06T01:38:32.839Z,11.40
2023-02-06T01:40:59.541Z,27.00
2023-02-06T01:43:28.076Z,29.30
2023-02-06T01:45:54.038Z,13.30
2023-02-06T01:48:21.618Z,14.10
2023-02-06T01:50:50.499Z,11.90
2023-02-06T01:53:16.473Z,14.00
2023-02-06T01:55:43.907Z,13.70
2023-02-06T01:58:10.675Z,15.20
2023-02-06T02:00:36.792Z,13.30
2023-02-06T02:03:02.840Z,16.00
2023-02-06T02:05:28.788Z,15.00
2023-02-06T02:10:30.073Z,14.00
2023-02-06T02:12:56.563Z,14.30
2023-02-06T02:15:24.361Z,31.40
2023-02-06T02:18:02.605Z,14.90
2023-02-06T02:20:56.760Z,15.20
2023-02-06T02:23:31.145Z,14.80
2023-02-06T02:26:07.368Z,17.00
2023-02-06T02:28:33.380Z,16.40
2023-02-06T02:31:07.676Z,31.80
2023-02-06T02:33:39.874Z,13.20
2023-02-06T02:36:45.107Z,14.00
2023-02-06T02:39:31.902Z,11.40
2023-02-06T02:42:12.790Z,11.90
2023-02-06T02:45:07.284Z,9.50
2023-02-06T02:47:38.396Z,10.20
2023-02-06T02:50:04.825Z,10.40
2023-02-06T02:52:30.751Z,11.40
2023-02-06T02:54:56.650Z,10.80
2023-02-06T02:57:29.463Z,11.40
2023-02-06T02:59:56.751Z,9.50
2023-02-06T03:02:28.744Z,11.20
2023-02-06T03:05:01.719Z,11.00
2023-02-06T03:07:53.034Z,13.30
2023-02-06T03:10:44.522Z,13.10
2023-02-06T03:13:18.430Z,10.40
2023-02-06T03:16:07.556Z,23.20
2023-02-06T03:18:40.592Z,12.60
2023-02-06T03:21:10.223Z,24.30
2023-02-06T03:23:38.760Z,11.20
2023-02-06T03:26:06.260Z,11.30
2023-02-06T03:28:33.926Z,9.60
2023-02-06T03:31:01.235Z,24.40
2023-02-06T03:33:30.900Z,11.80
2023-02-06T03:35:57.422Z,11.10
2023-02-06T03:38:24.140Z,12.10
2023-02-06T03:40:50.238Z,11.80
2023-02-06T03:43:18.134Z,27.10
2023-02-06T03:45:46.862Z,13.00
2023-02-06T03:48:18.708Z,13.10
2023-02-06T03:50:45.404Z,12.20
2023-02-06T03:53:11.349Z,13.20
2023-02-06T03:55:38.110Z,12.70
2023-02-06T04:00:32.411Z,11.70
2023-02-06T04:02:58.724Z,12.10
2023-02-06T04:05:24.805Z,13.20
2023-02-06T04:07:52.009Z,27.50
2023-02-06T04:10:18.016Z,11.50
2023-02-06T04:12:43.951Z,13.40
2023-02-06T04:15:10.099Z,13.80
2023-02-06T04:17:53.570Z,13.70
2023-02-06T04:20:22.541Z,13.00
2023-02-06T04:22:48.566Z,13.70
2023-02-06T04:25:14.447Z,15.00
2023-02-06T04:27:40.337Z,11.80
2023-02-06T04:30:07.291Z,13.50
2023-02-06T04:32:33.253Z,13.20
2023-02-06T04:34:59.172Z,14.00
2023-02-06T04:37:25.061Z,13.80
2023-02-06T04:39:50.981Z,13.30
2023-02-06T04:42:16.901Z,13.10
2023-02-06T04:44:42.835Z,13.30
2023-02-06T04:47:08.734Z,13.00
2023-02-06T04:49:34.667Z,12.50
2023-02-06T04:52:00.591Z,24.70
2023-02-06T04:54:26.561Z,11.70
2023-02-06T04:56:52.493Z,12.70
2023-02-06T04:59:18.382Z,11.70
2023-02-06T05:01:44.338Z,12.70
2023-02-06T05:04:10.272Z,12.50
2023-02-06T05:06:36.216Z,12.20
2023-02-06T05:09:02.972Z,13.00
2023-02-06T05:11:28.858Z,13.30
2023-02-06T05:13:54.769Z,12.60
2023-02-06T05:16:20.695Z,12.30
2023-02-06T05:18:46.790Z,12.80
2023-02-06T05:21:13.374Z,10.90
2023-02-06T05:23:39.724Z,11.90
2023-02-06T05:26:05.659Z,11.10
2023-02-06T05:28:34.500Z,12.90
2023-02-06T05:31:01.281Z,12.60
2023-02-06T05:33:27.356Z,13.00
2023-02-06T05:35:53.285Z,12.30
2023-02-06T05:38:19.194Z,13.70
2023-02-06T05:40:45.227Z,24.20
2023-02-06T05:43:11.291Z,12.20
2023-02-06T05:45:37.592Z,11.90
2023-02-06T05:48:04.085Z,11.40
2023-02-06T05:50:30.001Z,10.80
2023-02-06T05:52:58.100Z,11.10
2023-02-06T05:55:24.409Z,23.20
2023-02-06T05:57:50.354Z,12.40
2023-02-06T06:00:16.541Z,11.60
2023-02-06T06:02:42.501Z,11.20
2023-02-06T06:05:08.496Z,11.30
2023-02-06T06:07:34.453Z,11.00
2023-02-06T06:10:00.372Z,10.50
2023-02-06T06:12:26.261Z,12.30
2023-02-06T06:14:52.169Z,11.40
2023-02-06T06:17:18.156Z,11.80
2023-02-06T06:19:44.059Z,12.40
2023-02-06T06:22:10.866Z,11.30
2023-02-06T06:24:37.132Z,11.90
2023-02-06T06:27:03.125Z,11.70
2023-02-06T06:29:29.102Z,12.10
2023-02-06T06:31:55.105Z,13.00
2023-02-06T06:34:21.185Z,12.30
2023-02-06T06:36:47.095Z,13.80
2023-02-06T06:39:12.999Z,14.70
2023-02-06T06:41:38.926Z,14.10
2023-02-06T06:44:04.814Z,15.90
2023-02-06T06:46:30.709Z,18.30
2023-02-06T06:48:56.624Z,17.90
2023-02-06T06:51:23.054Z,17.90
2023-02-06T06:53:48.951Z,20.00
2023-02-06T06:56:14.949Z,22.60
2023-02-06T06:58:41.304Z,37.50
2023-02-06T07:01:08.065Z,18.30
2023-02-06T07:03:34.236Z,18.10
2023-02-06T07:06:00.217Z,36.10
2023-02-06T07:08:29.319Z,16.90
2023-02-06T07:10:56.963Z,16.90
2023-02-06T07:13:23.127Z,18.10
2023-02-06T07:15:49.066Z,17.50
2023-02-06T07:18:14.985Z,17.40
2023-02-06T07:20:40.901Z,15.50
2023-02-06T07:23:06.831Z,14.40
2023-02-06T07:25:32.877Z,33.40
2023-02-06T07:27:58.865Z,17.50
2023-02-06T07:30:24.801Z,37.50
2023-02-06T07:32:50.852Z,18.50
2023-02-06T07:35:17.063Z,43.00
2023-02-06T07:37:42.960Z,43.50
2023-02-06T07:40:10.041Z,23.90
2023-02-06T07:45:09.003Z,18.70
2023-02-06T07:47:34.930Z,20.60
2023-02-06T07:50:00.850Z,40.40
2023-02-06T07:52:26.761Z,22.40
2023-02-06T07:54:54.342Z,21.30
2023-02-06T07:57:20.770Z,22.70
2023-02-06T07:59:46.711Z,42.30
2023-02-06T08:02:12.707Z,18.70
2023-02-06T08:04:38.854Z,20.60
2023-02-06T08:07:05.224Z,21.50
2023-02-06T08:09:31.461Z,20.70
2023-02-06T08:11:57.400Z,19.50
2023-02-06T08:14:24.002Z,32.80
2023-02-06T08:16:50.248Z,31.90
2023-02-06T08:19:16.140Z,16.80
2023-02-06T08:21:42.064Z,15.90
2023-02-06T08:24:13.044Z,9.60
2023-02-06T08:26:39.036Z,31.40
2023-02-06T08:29:05.879Z,15.30
2023-02-06T08:31:33.911Z,13.30
2023-02-06T08:33:59.955Z,11.90
2023-02-06T08:36:26.183Z,31.50
2023-02-06T08:38:52.467Z,35.00
2023-02-06T08:41:21.379Z,15.70
2023-02-06T08:43:48.204Z,32.10
2023-02-06T08:46:14.883Z,14.30
2023-02-06T08:48:40.829Z,15.30
2023-02-06T08:51:07.627Z,33.40
2023-02-06T08:53:33.625Z,15.20
2023-02-06T08:56:00.745Z,34.30
2023-02-06T09:00:53.050Z,17.50
2023-02-06T09:03:20.396Z,18.00
2023-02-06T09:05:46.620Z,17.60
2023-02-06T09:08:12.710Z,33.90
2023-02-06T09:10:38.598Z,34.60
2023-02-06T09:13:04.559Z,14.70
2023-02-06T09:15:30.518Z,13.40
2023-02-06T09:17:56.526Z,33.50
2023-02-06T09:20:25.948Z,18.10
2023-02-06T09:22:52.629Z,17.60
2023-02-06T09:25:18.582Z,19.30
2023-02-06T09:27:46.212Z,17.70
2023-02-06T09:30:15.085Z,18.40
2023-02-06T09:32:42.553Z,30.90
2023-02-06T09:35:08.455Z,28.60
2023-02-06T09:37:34.766Z,14.90
2023-02-06T09:40:00.672Z,16.90
2023-02-06T09:42:29.453Z,16.90
2023-02-06T09:45:11.219Z,34.90
2023-02-06T09:47:39.331Z,16.40
2023-02-06T09:50:07.280Z,13.40
2023-02-06T09:53:10.673Z,14.50
2023-02-06T09:55:40.686Z,15.60
2023-02-06T09:58:38.814Z,28.10
2023-02-06T10:01:20.959Z,28.50
2023-02-06T10:04:10.072Z,28.70
2023-02-06T10:06:41.525Z,13.60
2023-02-06T10:09:14.364Z,27.60
2023-02-06T10:11:48.674Z,15.50
2023-02-06T10:14:24.070Z,27.10
2023-02-06T10:17:04.221Z,13.80
2023-02-06T10:19:38.527Z,14.10
2023-02-06T10:22:08.665Z,28.00
2023-02-06T10:24:40.469Z,27.60
2023-02-06T10:27:10.498Z,27.40
2023-02-06T10:29:36.452Z,27.60
2023-02-06T10:32:25.791Z,27.30
2023-02-06T10:35:02.971Z,28.20
2023-02-06T10:37:52.685Z,29.00
2023-02-06T10:40:27.741Z,28.80
2023-02-06T10:43:22.234Z,27.70
2023-02-06T10:46:19.250Z,26.50
2023-02-06T10:49:16.740Z,26.90
2023-02-06T10:51:44.781Z,26.90
2023-02-06T10:54:16.851Z,25.80
2023-02-06T10:56:44.329Z,25.40
2023-02-06T10:59:39.921Z,25.70
2023-02-06T11:02:08.720Z,27.10
2023-02-06T11:04:39.706Z,25.60
2023-02-06T11:07:15.688Z,23.10
2023-02-06T11:09:41.636Z,21.30
2023-02-06T11:12:18.179Z,19.80
2023-02-06T11:14:44.093Z,20.80
2023-02-06T11:17:10.032Z,21.10
2023-02-06T11:19:41.683Z,20.60
2023-02-06T11:22:10.574Z,19.20
2023-02-06T11:24:36.806Z,19.30
2023-02-06T11:27:18.391Z,19.30
2023-02-06T11:29:46.855Z,18.30
2023-02-06T11:32:35.401Z,17.60
2023-02-06T11:35:09.784Z,16.50
2023-02-06T11:37:37.768Z,17.70
2023-02-06T11:40:19.137Z,18.20
2023-02-06T11:42:46.303Z,19.50
2023-02-06T11:47:57.133Z,16.80
2023-02-06T11:50:27.602Z,16.90
2023-02-06T11:53:10.683Z,9.90
2023-02-06T11:55:37.751Z,9.20
2023-02-06T12:00:52.289Z,9.00
2023-02-06T12:03:26.670Z,18.60
2023-02-06T12:05:52.730Z,19.50
2023-02-06T12:08:19.099Z,9.90
2023-02-06T12:10:57.101Z,22.30
2023-02-06T12:13:25.832Z,10.30
2023-02-06T12:15:53.774Z,9.90
2023-02-06T12:18:34.591Z,20.40
2023-02-06T12:21:11.190Z,11.00
2023-02-06T12:23:45.377Z,20.70
2023-02-06T12:26:14.719Z,9.60
2023-02-06T12:28:51.007Z,19.40
2023-02-06T12:31:41.131Z,18.10
2023-02-06T12:34:15.424Z,19.80
2023-02-06T12:37:14.472Z,9.60
2023-02-06T12:39:41.968Z,8.00
2023-02-06T12:42:41.534Z,13.90
2023-02-06T12:45:44.237Z,6.50
2023-02-06T12:48:18.372Z,5.80
2023-02-06T12:51:07.062Z,11.50
2023-02-06T12:53:40.215Z,5.60
2023-02-06T12:56:25.058Z,5.90
2023-02-06T12:59:13.910Z,8.50
2023-02-06T13:02:00.793Z,7.70
2023-02-06T13:04:29.042Z,3.90
2023-02-06T13:07:05.912Z,4.70
2023-02-06T13:09:36.829Z,11.80
2023-02-06T13:12:07.732Z,13.90
2023-02-06T13:14:33.631Z,16.50
2023-02-06T13:17:07.233Z,7.10
2023-02-06T13:19:36.121Z,15.30
2023-02-06T13:22:12.404Z,8.50
2023-02-06T13:24:39.642Z,9.10
2023-02-06T13:27:08.584Z,8.10
2023-02-06T13:29:37.024Z,12.50
2023-02-06T13:32:15.176Z,11.60
2023-02-06T13:34:44.207Z,4.30
2023-02-06T13:37:33.311Z,8.90
2023-02-06T13:40:12.116Z,10.60
2023-02-06T13:42:56.169Z,10.40
2023-02-06T13:45:31.625Z,9.00
2023-02-06T13:48:35.769Z,4.40
2023-02-06T13:51:16.813Z,11.50
2023-02-06T13:54:02.472Z,6.10
2023-02-06T13:57:02.522Z,6.90
2023-02-06T13:59:32.069Z,7.20
2023-02-06T14:02:11.934Z,7.20
2023-02-06T14:04:37.897Z,14.90
2023-02-06T14:07:24.476Z,8.00
2023-02-06T14:09:59.430Z,7.50
2023-02-06T14:12:44.130Z,7.20
2023-02-06T14:15:36.188Z,6.40
2023-02-06T14:18:06.596Z,11.20
2023-02-06T14:20:49.233Z,10.60
2023-02-06T14:23:52.617Z,5.20
2023-02-06T14:26:29.223Z,4.60
2023-02-06T14:29:08.660Z,4.70
2023-02-06T14:31:53.094Z,4.20
2023-02-06T14:34:43.710Z,3.80
2023-02-06T14:37:23.453Z,3.60
2023-02-06T14:39:54.072Z,3.30
2023-02-06T14:42:24.135Z,4.10
2023-02-06T14:44:56.577Z,6.50
2023-02-06T14:47:25.460Z,3.70
2023-02-06T14:49:51.357Z,3.70
2023-02-06T14:52:20.693Z,8.40
2023-02-06T14:54:46.668Z,4.40
2023-02-06T14:57:21.543Z,4.50
2023-02-06T15:00:02.413Z,8.30
2023-02-06T15:02:31.125Z,8.40
2023-02-06T15:04:57.595Z,7.60
2023-02-06T15:07:29.454Z,8.40
2023-02-06T15:10:07.844Z,3.70
2023-02-06T15:12:33.999Z,4.40
2023-02-06T15:15:24.451Z,5.20
2023-02-06T15:18:07.962Z,4.30
2023-02-06T15:20:40.806Z,4.90
2023-02-06T15:23:18.110Z,9.20
2023-02-06T15:26:05.048Z,4.80
2023-02-06T15:28:32.527Z,9.20
2023-02-06T15:30:59.437Z,5.40
2023-02-06T15:33:27.821Z,4.90
2023-02-06T15:35:54.940Z,5.70
2023-02-06T15:40:59.571Z,5.10
2023-02-06T15:43:25.852Z,4.60
2023-02-06T15:45:56.553Z,5.20
2023-02-06T15:48:31.534Z,5.50
2023-02-06T15:51:22.195Z,9.70
2023-02-06T15:53:50.010Z,5.00
2023-02-06T15:56:21.809Z,10.00
2023-02-06T15:58:48.504Z,4.30
2023-02-06T16:01:16.976Z,4.90
2023-02-06T16:03:43.053Z,5.30
2023-02-06T16:06:15.760Z,5.70
2023-02-06T16:08:42.145Z,10.10
2023-02-06T16:11:29.106Z,10.90
2023-02-06T16:13:55.078Z,11.20
2023-02-06T16:16:22.763Z,5.20
2023-02-06T16:18:51.405Z,12.70
2023-02-06T16:21:17.342Z,7.30
2023-02-06T16:23:49.493Z,9.60
2023-02-06T16:26:19.875Z,19.90
2023-02-06T16:29:04.710Z,7.90
2023-02-06T16:31:31.670Z,6.90
2023-02-06T16:34:02.481Z,6.70
2023-02-06T16:36:29.578Z,6.80
2023-02-06T16:41:32.924Z,6.20
2023-02-06T16:43:59.207Z,6.80
2023-02-06T16:46:25.296Z,14.10
2023-02-06T16:48:52.105Z,6.50
2023-02-06T16:51:20.158Z,7.20
2023-02-06T16:53:47.662Z,6.70
2023-02-06T16:56:14.159Z,7.20
2023-02-06T16:58:40.272Z,17.70
2023-02-06T17:01:11.131Z,21.30
2023-02-06T17:03:38.190Z,10.00
2023-02-06T17:08:30.270Z,13.40
2023-02-06T17:10:56.184Z,13.20
2023-02-06T17:13:23.083Z,13.60
2023-02-06T17:15:51.545Z,14.10
2023-02-06T17:18:17.784Z,14.30
2023-02-06T17:20:45.705Z,13.30
2023-02-06T17:23:11.642Z,13.20
2023-02-06T17:25:38.649Z,26.60
2023-02-06T17:28:06.851Z,12.70
2023-02-06T17:30:33.479Z,12.60
2023-02-06T17:32:59.524Z,12.40
2023-02-06T17:35:25.551Z,13.50
2023-02-06T17:37:51.657Z,13.30
2023-02-06T17:40:20.425Z,13.20
2023-02-06T17:42:46.969Z,13.60
2023-02-06T17:45:12.969Z,15.70
2023-02-06T17:47:38.978Z,14.80
2023-02-06T17:50:05.378Z,14.90
2023-02-06T17:52:31.315Z,15.40
2023-02-06T17:54:57.424Z,14.50
2023-02-06T17:57:23.439Z,32.20
2023-02-06T17:59:52.088Z,32.10
2023-02-06T18:02:18.020Z,15.80
2023-02-06T18:04:44.055Z,16.10
2023-02-06T18:07:10.060Z,17.50
2023-02-06T18:09:36.051Z,17.60
2023-02-06T18:12:02.066Z,17.50
2023-02-06T18:14:27.994Z,18.90
2023-02-06T18:16:53.931Z,36.90
2023-02-06T18:19:24.119Z,40.20
2023-02-06T18:21:50.310Z,20.10
2023-02-06T18:24:16.426Z,21.20
2023-02-06T18:26:42.523Z,21.50
2023-02-06T18:29:08.452Z,45.70
2023-02-06T18:31:35.258Z,21.60
2023-02-06T18:34:02.680Z,21.30
2023-02-06T18:36:29.241Z,22.30
2023-02-06T18:38:55.849Z,22.10
2023-02-06T18:44:41.237Z,21.90
2023-02-06T18:47:10.025Z,48.70
2023-02-06T18:49:37.972Z,21.70
2023-02-06T18:52:04.720Z,49.80
2023-02-06T18:54:31.554Z,25.90
2023-02-06T18:57:01.071Z,25.20
2023-02-06T18:59:27.211Z,26.40
2023-02-06T19:02:19.325Z,46.90
2023-02-06T19:04:45.540Z,25.10
2023-02-06T19:07:11.689Z,26.50
2023-02-06T19:09:38.134Z,26.80
2023-02-06T19:12:04.630Z,27.50
2023-02-06T19:14:31.184Z,29.10
2023-02-06T19:16:57.880Z,27.60
2023-02-06T19:19:27.179Z,28.50
2023-02-06T19:21:53.202Z,28.10
2023-02-06T19:24:19.140Z,27.00
2023-02-06T19:26:45.220Z,26.80
2023-02-06T19:29:17.604Z,27.70
2023-02-06T19:31:45.628Z,25.90
2023-02-06T19:34:11.742Z,28.30
2023-02-06T19:36:37.890Z,27.90
2023-02-06T19:39:06.085Z,58.30
2023-02-06T19:41:32.665Z,29.20
2023-02-06T19:44:02.617Z,55.40
2023-02-06T19:46:28.936Z,27.60
2023-02-06T19:48:55.217Z,28.30
2023-02-06T19:51:24.465Z,27.50
2023-02-06T19:53:50.864Z,29.40
2023-02-06T19:56:22.651Z,29.90
2023-02-06T19:58:53.378Z,57.20
2023-02-06T20:01:19.342Z,57.30
2023-02-06T20:06:27.310Z,26.90
2023-02-06T20:08:53.898Z,28.30
2023-02-06T20:11:21.000Z,28.20
2023-02-06T20:13:51.642Z,26.70
2023-02-06T20:16:19.803Z,26.80
2023-02-06T20:18:45.912Z,26.60
2023-02-06T20:21:19.582Z,25.40
2023-02-06T20:23:45.685Z,57.10
2023-02-06T20:26:11.960Z,27.10
2023-02-06T20:28:37.875Z,29.50
2023-02-06T20:31:08.993Z,56.80
2023-02-06T20:33:37.901Z,57.00
2023-02-06T20:36:06.004Z,56.20
2023-02-06T20:38:31.949Z,26.50
2023-02-06T20:40:57.868Z,31.20
2023-02-06T20:43:23.763Z,30.60
2023-02-06T20:45:49.746Z,34.10
2023-02-06T20:48:15.659Z,32.40
2023-02-06T20:50:42.175Z,32.90
2023-02-06T20:53:08.129Z,67.00
2023-02-06T20:55:34.046Z,31.00
2023-02-06T20:57:59.979Z,74.70
2023-02-06T21:00:25.875Z,40.30
2023-02-06T21:02:53.177Z,41.30
2023-02-06T21:05:19.613Z,101.00
2023-02-06T21:07:45.538Z,48.30
2023-02-06T21:10:11.449Z,114.70
2023-02-06T21:12:37.387Z,36.00
2023-02-06T21:15:03.645Z,37.00
2023-02-06T21:17:29.593Z,42.60
2023-02-06T21:19:55.500Z,40.90
2023-02-06T21:22:21.451Z,43.50
2023-02-06T21:24:47.377Z,45.00
2023-02-06T21:27:13.325Z,47.30
2023-02-06T21:29:39.364Z,46.70
2023-02-06T21:32:13.752Z,46.80
2023-02-06T21:34:40.712Z,46.70
2023-02-06T21:37:06.640Z,113.10
2023-02-06T21:39:32.609Z,52.90
2023-02-06T21:41:59.819Z,50.80
2023-02-06T21:44:25.943Z,51.60
2023-02-06T21:46:52.022Z,111.70
2023-02-06T21:49:18.476Z,111.30
2023-02-06T21:51:44.841Z,49.90
2023-02-06T21:54:10.886Z,47.40
2023-02-06T21:56:39.954Z,46.70
2023-02-06T21:59:06.333Z,47.40
2023-02-06T22:01:32.933Z,117.60
2023-02-06T22:03:59.256Z,49.10
2023-02-06T22:06:25.907Z,48.40
2023-02-06T22:08:53.555Z,50.10
2023-02-06T22:11:27.064Z,105.50
2023-02-06T22:13:56.775Z,46.60
2023-02-06T22:16:23.024Z,47.80
2023-02-06T22:18:49.113Z,49.80
2023-02-06T22:21:16.642Z,53.60
2023-02-06T22:23:43.017Z,52.40
2023-02-06T22:26:09.860Z,112.00
2023-02-06T22:28:36.115Z,51.20
2023-02-06T22:31:10.145Z,51.60
2023-02-06T22:33:36.159Z,53.10
2023-02-06T22:36:13.817Z,52.20
2023-02-06T22:38:40.568Z,55.80
2023-02-06T22:41:08.308Z,57.90
2023-02-06T22:43:35.765Z,58.30
2023-02-06T22:46:02.083Z,126.70
2023-02-06T22:48:28.077Z,52.50
2023-02-06T22:50:54.137Z,117.00
2023-02-06T22:53:29.572Z,46.50
2023-02-06T22:56:18.803Z,46.50
2023-02-06T22:58:44.914Z,48.60
2023-02-06T23:01:10.952Z,48.10
2023-02-06T23:03:37.011Z,47.50
2023-02-06T23:06:04.059Z,49.60
2023-02-06T23:08:30.052Z,55.30
2023-02-06T23:10:56.104Z,59.50
2023-02-06T23:13:22.127Z,54.60
2023-02-06T23:15:48.546Z,58.60
2023-02-06T23:18:14.603Z,56.00
2023-02-06T23:20:40.530Z,55.00
2023-02-06T23:23:06.430Z,55.10
2023-02-06T23:25:32.378Z,55.10
2023-02-06T23:27:58.282Z,54.50
2023-02-06T23:30:24.400Z,119.30
2023-02-06T23:32:50.389Z,50.30
2023-02-06T23:35:16.990Z,122.00
2023-02-06T23:37:42.901Z,125.20
2023-02-06T23:40:09.297Z,50.40
2023-02-06T23:42:35.209Z,50.40
2023-02-06T23:45:01.152Z,123.60
2023-02-06T23:47:27.059Z,48.00
2023-02-06T23:49:52.954Z,50.00
2023-02-06T23:52:18.910Z,49.80
2023-02-06T23:54:44.815Z,47.20
2023-02-06T23:57:10.732Z,47.80
2023-02-06T23:59:36.663Z,49.30
